createdAt,value
2022-09-28T00:00:02.592Z,976.20
2022-09-28T00:01:02.622Z,976.25
2022-09-28T00:02:02.663Z,976.20
2022-09-28T00:03:02.635Z,976.15
2022-09-28T00:04:02.696Z,976.14
2022-09-28T00:05:02.560Z,976.13
2022-09-28T00:06:02.647Z,976.08
2022-09-28T00:07:02.651Z,976.06
2022-09-28T00:08:02.633Z,975.97
2022-09-28T00:09:02.659Z,975.91
2022-09-28T00:10:02.639Z,975.99
2022-09-28T00:11:02.670Z,975.94
2022-09-28T00:12:02.628Z,975.93
2022-09-28T00:13:02.666Z,975.83
2022-09-28T00:14:02.637Z,975.93
2022-09-28T00:15:02.644Z,975.88
2022-09-28T00:16:02.586Z,975.82
2022-09-28T00:17:02.502Z,975.79
2022-09-28T00:18:02.587Z,975.76
2022-09-28T00:19:02.462Z,975.77
2022-09-28T00:20:02.465Z,975.87
2022-09-28T00:21:02.498Z,975.80
2022-09-28T00:22:02.499Z,975.76
2022-09-28T00:23:02.460Z,975.84
2022-09-28T00:24:02.518Z,975.77
2022-09-28T00:25:02.516Z,975.80
2022-09-28T00:26:02.541Z,975.81
2022-09-28T00:27:02.492Z,975.86
2022-09-28T00:28:02.509Z,975.84
2022-09-28T00:29:02.477Z,975.84
2022-09-28T00:30:02.501Z,975.75
2022-09-28T00:31:02.505Z,975.72
2022-09-28T00:32:02.948Z,975.77
2022-09-28T00:33:02.450Z,975.76
2022-09-28T00:34:02.501Z,975.72
2022-09-28T00:35:02.424Z,975.76
2022-09-28T00:36:02.362Z,975.74
2022-09-28T00:37:02.384Z,975.71
2022-09-28T00:38:02.332Z,975.73
2022-09-28T00:39:02.458Z,975.71
2022-09-28T00:40:02.316Z,975.66
2022-09-28T00:41:02.316Z,975.63
2022-09-28T00:42:02.470Z,975.75
2022-09-28T00:43:02.421Z,975.65
2022-09-28T00:44:02.380Z,975.65
2022-09-28T00:45:02.376Z,975.63
2022-09-28T00:46:02.433Z,975.54
2022-09-28T00:47:02.392Z,975.56
2022-09-28T00:48:02.409Z,975.53
2022-09-28T00:49:02.373Z,975.55
2022-09-28T00:50:02.354Z,975.55
2022-09-28T00:51:02.337Z,975.55
2022-09-28T00:52:02.451Z,975.44
2022-09-28T00:53:02.313Z,975.53
2022-09-28T00:54:02.219Z,975.54
2022-09-28T00:55:02.207Z,975.54
2022-09-28T00:56:02.203Z,975.53
2022-09-28T00:57:02.230Z,975.49
2022-09-28T00:58:02.203Z,975.51
2022-09-28T00:59:02.239Z,975.45
2022-09-28T01:00:02.183Z,975.42
2022-09-28T01:01:02.233Z,975.42
2022-09-28T01:02:02.202Z,975.44
2022-09-28T01:03:02.253Z,975.40
2022-09-28T01:04:02.296Z,975.33
2022-09-28T01:05:02.220Z,975.34
2022-09-28T01:06:02.242Z,975.28
2022-09-28T01:07:02.301Z,975.29
2022-09-28T01:08:02.224Z,975.33
2022-09-28T01:09:02.201Z,975.36
2022-09-28T01:10:02.302Z,975.29
2022-09-28T01:11:02.234Z,975.27
2022-09-28T01:12:02.184Z,975.23
2022-09-28T01:13:02.187Z,975.37
2022-09-28T01:14:02.096Z,975.27
2022-09-28T01:15:02.119Z,975.33
2022-09-28T01:16:02.148Z,975.27
2022-09-28T01:17:02.151Z,975.25
2022-09-28T01:18:02.192Z,975.24
2022-09-28T01:19:02.157Z,975.23
2022-09-28T01:20:02.048Z,975.19
2022-09-28T01:21:02.170Z,975.26
2022-09-28T01:22:02.207Z,975.24
2022-09-28T01:23:02.030Z,975.22
2022-09-28T01:24:02.200Z,975.27
2022-09-28T01:25:02.125Z,975.15
2022-09-28T01:26:02.071Z,975.21
2022-09-28T01:27:02.088Z,975.17
2022-09-28T01:28:02.066Z,975.20
2022-09-28T01:29:02.020Z,975.13
2022-09-28T01:30:02.079Z,975.13
2022-09-28T01:31:02.052Z,975.21
2022-09-28T01:32:02.099Z,975.07
2022-09-28T01:33:02.006Z,975.13
2022-09-28T01:34:01.962Z,975.08
2022-09-28T01:35:02.031Z,975.16
2022-09-28T01:36:01.968Z,975.05
2022-09-28T01:37:02.108Z,975.11
2022-09-28T01:38:01.950Z,975.12
2022-09-28T01:39:02.015Z,975.00
2022-09-28T01:40:02.002Z,975.04
2022-09-28T01:41:01.917Z,975.06
2022-09-28T01:42:01.988Z,975.04
2022-09-28T01:43:02.131Z,974.91
2022-09-28T01:44:01.881Z,974.95
2022-09-28T01:45:02.036Z,974.97
2022-09-28T01:46:02.098Z,974.96
2022-09-28T01:47:01.878Z,974.86
2022-09-28T01:48:01.961Z,974.91
2022-09-28T01:49:01.947Z,974.89
2022-09-28T01:50:01.907Z,974.88
2022-09-28T01:51:01.921Z,974.90
2022-09-28T01:52:01.831Z,974.82
2022-09-28T01:53:01.846Z,974.81
2022-09-28T01:54:01.863Z,974.87
2022-09-28T01:55:01.773Z,974.77
2022-09-28T01:56:02.838Z,974.76
2022-09-28T01:57:01.882Z,974.76
2022-09-28T01:58:01.864Z,974.73
2022-09-28T01:59:01.829Z,974.76
2022-09-28T02:00:01.900Z,974.72
2022-09-28T02:01:01.876Z,974.69
2022-09-28T02:02:01.859Z,974.69
2022-09-28T02:03:01.850Z,974.73
2022-09-28T02:04:01.912Z,974.61
2022-09-28T02:05:01.761Z,974.71
2022-09-28T02:06:01.860Z,974.64
2022-09-28T02:07:01.828Z,974.63
2022-09-28T02:08:01.724Z,974.60
2022-09-28T02:09:01.808Z,974.59
2022-09-28T02:10:01.918Z,974.53
2022-09-28T02:11:01.716Z,974.54
2022-09-28T02:12:01.781Z,974.54
2022-09-28T02:13:01.761Z,974.52
2022-09-28T02:14:01.672Z,974.46
2022-09-28T02:15:01.721Z,974.52
2022-09-28T02:16:01.727Z,974.48
2022-09-28T02:17:01.668Z,974.54
2022-09-28T02:18:01.690Z,974.46
2022-09-28T02:19:02.462Z,974.49
2022-09-28T02:20:02.679Z,974.39
2022-09-28T02:21:01.641Z,974.38
2022-09-28T02:22:01.718Z,974.37
2022-09-28T02:23:01.618Z,974.39
2022-09-28T02:24:01.714Z,974.44
2022-09-28T02:25:01.693Z,974.37
2022-09-28T02:26:01.625Z,974.35
2022-09-28T02:27:01.711Z,974.37
2022-09-28T02:28:01.695Z,974.36
2022-09-28T02:29:01.583Z,974.30
2022-09-28T02:30:01.672Z,974.38
2022-09-28T02:31:01.783Z,974.38
2022-09-28T02:32:01.588Z,974.38
2022-09-28T02:33:01.743Z,974.36
2022-09-28T02:34:01.639Z,974.36
2022-09-28T02:35:01.519Z,974.34
2022-09-28T02:36:01.638Z,974.28
2022-09-28T02:37:01.653Z,974.30
2022-09-28T02:38:01.520Z,974.27
2022-09-28T02:39:01.523Z,974.27
2022-09-28T02:40:01.522Z,974.32
2022-09-28T02:41:01.551Z,974.23
2022-09-28T02:42:02.922Z,974.26
2022-09-28T02:43:01.565Z,974.06
2022-09-28T02:44:01.454Z,974.20
2022-09-28T02:45:01.461Z,974.22
2022-09-28T02:46:01.477Z,974.30
2022-09-28T02:47:01.456Z,974.12
2022-09-28T02:48:01.609Z,974.12
2022-09-28T02:49:20.347Z,974.30
2022-09-28T02:50:03.440Z,974.21
2022-09-28T02:51:01.518Z,974.15
2022-09-28T02:52:01.544Z,974.20
2022-09-28T02:53:01.430Z,974.21
2022-09-28T02:54:01.558Z,974.17
2022-09-28T02:55:01.483Z,974.08
2022-09-28T02:56:02.412Z,974.02
2022-09-28T02:57:01.525Z,974.06
2022-09-28T02:58:01.520Z,974.06
2022-09-28T02:59:01.389Z,974.03
2022-09-28T03:00:01.510Z,974.09
2022-09-28T03:01:01.427Z,974.08
2022-09-28T03:02:01.428Z,974.15
2022-09-28T03:03:01.374Z,974.06
2022-09-28T03:04:02.455Z,974.09
2022-09-28T03:05:01.338Z,974.05
2022-09-28T03:06:01.371Z,974.07
2022-09-28T03:07:01.322Z,974.18
2022-09-28T03:08:01.306Z,974.12
2022-09-28T03:09:01.461Z,974.15
2022-09-28T03:10:01.384Z,974.08
2022-09-28T03:11:01.320Z,974.08
2022-09-28T03:12:01.458Z,974.16
2022-09-28T03:13:01.381Z,974.12
2022-09-28T03:14:01.252Z,974.15
2022-09-28T03:15:01.418Z,974.09
2022-09-28T03:16:01.384Z,974.08
2022-09-28T03:17:01.241Z,974.08
2022-09-28T03:18:01.352Z,974.07
2022-09-28T03:19:01.370Z,974.05
2022-09-28T03:20:01.250Z,974.08
2022-09-28T03:21:01.290Z,974.08
2022-09-28T03:22:01.370Z,974.07
2022-09-28T03:23:23.407Z,974.05
2022-09-28T03:24:03.233Z,974.05
2022-09-28T03:25:01.309Z,974.00
2022-09-28T03:26:01.211Z,974.06
2022-09-28T03:27:01.179Z,974.07
2022-09-28T03:28:01.158Z,973.98
2022-09-28T03:29:01.145Z,974.07
2022-09-28T03:30:01.537Z,974.04
2022-09-28T03:31:01.230Z,974.05
2022-09-28T03:32:01.224Z,973.95
2022-09-28T03:33:01.253Z,974.03
2022-09-28T03:34:01.207Z,973.96
2022-09-28T03:35:01.128Z,974.02
2022-09-28T03:36:01.267Z,973.94
2022-09-28T03:37:01.168Z,973.98
2022-09-28T03:38:01.109Z,973.99
2022-09-28T03:39:01.177Z,973.96
2022-09-28T03:40:01.214Z,973.99
2022-09-28T03:41:01.161Z,973.95
2022-09-28T03:42:01.213Z,973.93
2022-09-28T03:43:01.183Z,973.97
2022-09-28T03:44:01.070Z,974.02
2022-09-28T03:45:01.154Z,973.98
2022-09-28T03:46:01.409Z,973.98
2022-09-28T03:47:01.045Z,973.91
2022-09-28T03:48:01.041Z,973.85
2022-09-28T03:49:01.025Z,973.91
2022-09-28T03:50:01.037Z,973.92
2022-09-28T03:51:01.160Z,973.92
2022-09-28T03:52:01.041Z,973.87
2022-09-28T03:53:00.998Z,973.88
2022-09-28T03:54:00.969Z,973.90
2022-09-28T03:55:00.995Z,973.91
2022-09-28T03:56:00.969Z,973.85
2022-09-28T03:57:01.076Z,973.83
2022-09-28T03:58:01.053Z,973.84
2022-09-28T03:59:01.060Z,973.82
2022-09-28T04:00:01.013Z,973.82
2022-09-28T04:01:01.116Z,973.82
2022-09-28T04:02:00.957Z,973.80
2022-09-28T04:03:01.173Z,973.74
2022-09-28T04:04:01.001Z,973.81
2022-09-28T04:05:00.912Z,973.77
2022-09-28T04:06:00.971Z,973.78
2022-09-28T04:07:00.988Z,973.78
2022-09-28T04:08:01.889Z,973.75
2022-09-28T04:09:00.976Z,973.69
2022-09-28T04:10:00.988Z,973.62
2022-09-28T04:11:00.854Z,973.68
2022-09-28T04:12:04.142Z,973.70
2022-09-28T04:13:01.886Z,973.63
2022-09-28T04:14:00.822Z,973.63
2022-09-28T04:15:00.944Z,973.69
2022-09-28T04:16:01.017Z,973.71
2022-09-28T04:17:00.895Z,973.65
2022-09-28T04:18:00.942Z,973.67
2022-09-28T04:19:00.929Z,973.66
2022-09-28T04:20:00.943Z,973.68
2022-09-28T04:21:00.870Z,973.63
2022-09-28T04:22:00.904Z,973.71
2022-09-28T04:23:00.769Z,973.72
2022-09-28T04:24:00.936Z,973.78
2022-09-28T04:25:00.869Z,973.65
2022-09-28T04:26:00.744Z,973.73
2022-09-28T04:27:00.853Z,973.70
2022-09-28T04:28:00.867Z,973.70
2022-09-28T04:29:05.447Z,973.70
2022-09-28T04:30:02.935Z,973.64
2022-09-28T04:31:00.734Z,973.66
2022-09-28T04:32:00.749Z,973.71
2022-09-28T04:33:00.723Z,973.69
2022-09-28T04:34:00.813Z,973.82
2022-09-28T04:35:00.702Z,973.79
2022-09-28T04:36:00.743Z,973.74
2022-09-28T04:37:00.687Z,973.77
2022-09-28T04:38:00.689Z,973.78
2022-09-28T04:39:01.516Z,973.78
2022-09-28T04:40:00.733Z,973.82
2022-09-28T04:41:00.817Z,973.81
2022-09-28T04:42:00.745Z,973.94
2022-09-28T04:43:00.742Z,973.86
2022-09-28T04:44:00.642Z,973.90
2022-09-28T04:45:00.759Z,973.89
2022-09-28T04:46:01.790Z,973.86
2022-09-28T04:47:04.324Z,973.89
2022-09-28T04:48:13.429Z,973.93
2022-09-28T04:49:00.604Z,973.88
2022-09-28T04:50:11.079Z,973.87
2022-09-28T04:51:00.582Z,973.92
2022-09-28T04:52:00.611Z,973.85
2022-09-28T04:53:00.554Z,973.91
2022-09-28T04:54:01.682Z,973.91
2022-09-28T04:55:00.572Z,973.92
2022-09-28T04:56:00.576Z,973.90
2022-09-28T04:57:00.683Z,973.93
2022-09-28T04:58:01.538Z,973.96
2022-09-28T04:59:00.610Z,973.97
2022-09-28T05:00:00.617Z,973.95
2022-09-28T05:01:00.741Z,973.96
2022-09-28T05:02:00.530Z,973.92
2022-09-28T05:03:00.668Z,973.98
2022-09-28T05:04:00.600Z,973.92
2022-09-28T05:05:00.520Z,973.95
2022-09-28T05:06:00.490Z,973.95
2022-09-28T05:07:00.490Z,973.97
2022-09-28T05:08:00.663Z,973.98
2022-09-28T05:09:00.474Z,974.06
2022-09-28T05:10:00.478Z,974.06
2022-09-28T05:11:00.446Z,973.99
2022-09-28T05:12:00.482Z,974.00
2022-09-28T05:13:00.500Z,973.93
2022-09-28T05:14:00.634Z,974.02
2022-09-28T05:15:00.426Z,974.00
2022-09-28T05:16:05.073Z,974.04
2022-09-28T05:17:02.501Z,974.01
2022-09-28T05:18:00.393Z,974.10
2022-09-28T05:19:00.542Z,974.04
2022-09-28T05:20:00.474Z,974.05
2022-09-28T05:21:00.387Z,974.11
2022-09-28T05:22:00.470Z,974.15
2022-09-28T05:23:00.455Z,974.11
2022-09-28T05:24:00.394Z,974.11
2022-09-28T05:25:00.517Z,974.09
2022-09-28T05:26:00.436Z,974.02
2022-09-28T05:27:00.436Z,974.12
2022-09-28T05:28:00.334Z,974.13
2022-09-28T05:29:00.357Z,974.15
2022-09-28T05:30:00.457Z,974.16
2022-09-28T05:31:00.328Z,974.10
2022-09-28T05:32:00.361Z,974.13
2022-09-28T05:33:00.343Z,974.12
2022-09-28T05:34:00.391Z,974.20
2022-09-28T05:35:00.435Z,974.10
2022-09-28T05:36:01.669Z,974.13
2022-09-28T05:37:01.395Z,974.16
2022-09-28T05:38:00.378Z,974.21
2022-09-28T05:39:00.259Z,974.13
2022-09-28T05:40:00.387Z,974.17
2022-09-28T05:41:03.283Z,974.17
2022-09-28T05:42:02.289Z,974.22
2022-09-28T05:43:00.315Z,974.23
2022-09-28T05:44:00.395Z,974.24
2022-09-28T05:45:00.243Z,974.21
2022-09-28T05:46:00.396Z,974.24
2022-09-28T05:47:00.647Z,974.23
2022-09-28T05:48:00.290Z,974.21
2022-09-28T05:49:00.279Z,974.24
2022-09-28T05:50:00.267Z,974.26
2022-09-28T05:51:00.184Z,974.32
2022-09-28T05:52:00.228Z,974.27
2022-09-28T05:53:32.154Z,974.28
2022-09-28T05:54:32.168Z,974.29
2022-09-28T05:55:32.465Z,974.31
2022-09-28T05:56:32.164Z,974.29
2022-09-28T05:57:00.161Z,974.34
2022-09-28T05:58:32.272Z,974.28
2022-09-28T05:59:32.123Z,974.30
2022-09-28T06:00:32.178Z,974.36
2022-09-28T06:01:32.368Z,974.32
2022-09-28T06:02:00.207Z,974.34
2022-09-28T06:03:00.154Z,974.32
2022-09-28T06:04:01.267Z,974.36
2022-09-28T06:05:00.227Z,974.38
2022-09-28T06:06:00.115Z,974.36
2022-09-28T06:07:00.172Z,974.35
2022-09-28T06:08:00.164Z,974.32
2022-09-28T06:09:00.198Z,974.39
2022-09-28T06:10:00.183Z,974.33
2022-09-28T06:11:00.134Z,974.38
2022-09-28T06:12:00.650Z,974.44
2022-09-28T06:13:00.020Z,974.38
2022-09-28T06:14:01.088Z,974.40
2022-09-28T06:15:00.100Z,974.34
2022-09-28T06:16:00.126Z,974.41
2022-09-28T06:17:00.199Z,974.38
2022-09-28T06:17:59.987Z,974.41
2022-09-28T06:19:00.640Z,974.42
2022-09-28T06:20:00.148Z,974.34
2022-09-28T06:20:59.973Z,974.41
2022-09-28T06:22:00.058Z,974.36
2022-09-28T06:23:00.111Z,974.44
2022-09-28T06:23:59.944Z,974.46
2022-09-28T06:25:01.130Z,974.40
2022-09-28T06:26:00.028Z,974.44
2022-09-28T06:26:59.967Z,974.48
2022-09-28T06:28:00.007Z,974.50
2022-09-28T06:29:00.087Z,974.47
2022-09-28T06:29:59.914Z,974.52
2022-09-28T06:31:00.182Z,974.50
2022-09-28T06:31:59.908Z,974.50
2022-09-28T06:32:59.911Z,974.46
2022-09-28T06:34:00.067Z,974.48
2022-09-28T06:34:59.893Z,974.50
2022-09-28T06:35:59.899Z,974.53
2022-09-28T06:37:00.036Z,974.51
2022-09-28T06:37:59.929Z,974.53
2022-09-28T06:38:59.852Z,974.59
2022-09-28T06:39:59.941Z,974.52
2022-09-28T06:41:00.093Z,974.54
2022-09-28T06:41:59.843Z,974.57
2022-09-28T06:42:59.946Z,974.51
2022-09-28T06:43:59.981Z,974.58
2022-09-28T06:44:59.804Z,974.57
2022-09-28T06:46:00.020Z,974.58
2022-09-28T06:46:59.920Z,974.64
2022-09-28T06:47:59.783Z,974.69
2022-09-28T06:48:59.867Z,974.61
2022-09-28T06:49:59.846Z,974.65
2022-09-28T06:50:59.758Z,974.66
2022-09-28T06:52:00.243Z,974.65
2022-09-28T06:52:59.756Z,974.65
2022-09-28T06:53:59.790Z,974.64
2022-09-28T06:54:59.745Z,974.63
2022-09-28T06:55:59.816Z,974.66
2022-09-28T06:56:59.714Z,974.67
2022-09-28T06:57:59.734Z,974.69
2022-09-28T06:58:59.720Z,974.75
2022-09-28T06:59:59.682Z,974.73
2022-09-28T07:00:59.751Z,974.75
2022-09-28T07:02:00.719Z,974.79
2022-09-28T07:02:59.710Z,974.73
2022-09-28T07:03:59.742Z,974.82
2022-09-28T07:04:59.797Z,974.82
2022-09-28T07:05:59.645Z,974.81
2022-09-28T07:06:59.820Z,974.77
2022-09-28T07:07:59.769Z,974.86
2022-09-28T07:09:15.508Z,974.81
2022-09-28T07:10:01.657Z,974.80
2022-09-28T07:10:59.680Z,974.83
2022-09-28T07:11:59.662Z,974.78
2022-09-28T07:12:59.700Z,974.85
2022-09-28T07:13:59.710Z,974.80
2022-09-28T07:14:59.584Z,974.87
2022-09-28T07:15:59.705Z,974.84
2022-09-28T07:17:13.293Z,974.90
2022-09-28T07:18:03.481Z,974.87
2022-09-28T07:19:00.591Z,974.87
2022-09-28T07:20:05.890Z,974.89
2022-09-28T07:21:01.581Z,974.93
2022-09-28T07:22:05.126Z,974.93
2022-09-28T07:23:13.949Z,974.93
2022-09-28T07:24:01.771Z,975.02
2022-09-28T07:24:59.567Z,974.91
2022-09-28T07:25:59.662Z,974.87
2022-09-28T07:26:59.705Z,975.00
2022-09-28T07:27:59.510Z,974.92
2022-09-28T07:28:59.602Z,974.99
2022-09-28T07:29:59.713Z,974.97
2022-09-28T07:30:59.517Z,974.97
2022-09-28T07:31:59.747Z,975.00
2022-09-28T07:32:59.641Z,975.00
2022-09-28T07:33:59.435Z,975.00
2022-09-28T07:34:59.646Z,975.05
2022-09-28T07:35:59.547Z,975.02
2022-09-28T07:36:59.444Z,975.03
2022-09-28T07:37:59.528Z,975.09
2022-09-28T07:38:59.495Z,975.05
2022-09-28T07:39:59.540Z,975.10
2022-09-28T07:40:59.498Z,975.14
2022-09-28T07:42:02.529Z,975.12
2022-09-28T07:43:00.384Z,975.18
2022-09-28T07:43:59.481Z,975.16
2022-09-28T07:44:59.393Z,975.12
2022-09-28T07:45:59.448Z,975.15
2022-09-28T07:46:59.448Z,975.11
2022-09-28T07:47:59.496Z,975.17
2022-09-28T07:48:59.354Z,975.10
2022-09-28T07:49:59.437Z,975.07
2022-09-28T07:50:59.503Z,975.18
2022-09-28T07:51:59.341Z,975.19
2022-09-28T07:52:59.458Z,975.17
2022-09-28T07:53:59.405Z,975.11
2022-09-28T07:55:03.350Z,975.10
2022-09-28T07:56:00.764Z,975.14
2022-09-28T07:56:59.271Z,975.11
2022-09-28T07:58:00.377Z,975.14
2022-09-28T07:58:59.427Z,975.16
2022-09-28T07:59:59.361Z,975.15
2022-09-28T08:00:59.391Z,975.19
2022-09-28T08:01:59.518Z,975.15
2022-09-28T08:02:59.288Z,975.15
2022-09-28T08:03:59.236Z,975.22
2022-09-28T08:04:59.232Z,975.23
2022-09-28T08:05:59.248Z,975.20
2022-09-28T08:06:59.324Z,975.23
2022-09-28T08:07:59.862Z,975.23
2022-09-28T08:08:59.200Z,975.21
2022-09-28T08:09:59.299Z,975.21
2022-09-28T08:10:59.284Z,975.29
2022-09-28T08:11:59.323Z,975.23
2022-09-28T08:13:02.098Z,975.27
2022-09-28T08:13:59.306Z,975.22
2022-09-28T08:14:59.251Z,975.30
2022-09-28T08:15:59.240Z,975.24
2022-09-28T08:16:59.268Z,975.26
2022-09-28T08:18:02.627Z,975.27
2022-09-28T08:19:00.248Z,975.36
2022-09-28T08:19:59.212Z,975.30
2022-09-28T08:20:59.187Z,975.39
2022-09-28T08:21:59.188Z,975.39
2022-09-28T08:22:59.138Z,975.34
2022-09-28T08:23:59.119Z,975.39
2022-09-28T08:24:59.219Z,975.40
2022-09-28T08:25:59.087Z,975.39
2022-09-28T08:26:59.086Z,975.40
2022-09-28T08:27:59.060Z,975.38
2022-09-28T08:28:59.093Z,975.43
2022-09-28T08:29:59.123Z,975.42
2022-09-28T08:30:59.209Z,975.46
2022-09-28T08:32:01.581Z,975.48
2022-09-28T08:33:00.121Z,975.41
2022-09-28T08:33:59.172Z,975.43
2022-09-28T08:34:59.162Z,975.46
2022-09-28T08:35:59.104Z,975.51
2022-09-28T08:36:59.145Z,975.45
2022-09-28T08:37:59.090Z,975.54
2022-09-28T08:38:59.095Z,975.56
2022-09-28T08:39:59.088Z,975.54
2022-09-28T08:40:59.133Z,975.53
2022-09-28T08:41:59.078Z,975.54
2022-09-28T08:42:58.978Z,975.49
2022-09-28T08:43:58.944Z,975.55
2022-09-28T08:44:59.070Z,975.52
2022-09-28T08:45:59.012Z,975.56
2022-09-28T08:46:58.948Z,975.54
2022-09-28T08:47:59.049Z,975.53
2022-09-28T08:49:24.271Z,975.57
2022-09-28T08:50:00.959Z,975.66
2022-09-28T08:50:59.015Z,975.69
2022-09-28T08:51:58.997Z,975.68
2022-09-28T08:52:58.966Z,975.62
2022-09-28T08:53:58.971Z,975.67
2022-09-28T08:54:58.884Z,975.59
2022-09-28T08:55:59.031Z,975.56
2022-09-28T08:56:58.960Z,975.66
2022-09-28T08:57:59.085Z,975.65
2022-09-28T08:58:58.936Z,975.66
2022-09-28T08:59:59.087Z,975.76
2022-09-28T09:00:59.114Z,975.78
2022-09-28T09:01:58.937Z,975.69
2022-09-28T09:02:58.857Z,975.67
2022-09-28T09:03:58.933Z,975.68
2022-09-28T09:04:58.804Z,975.64
2022-09-28T09:05:58.881Z,975.72
2022-09-28T09:06:58.948Z,975.73
2022-09-28T09:07:58.874Z,975.70
2022-09-28T09:08:58.882Z,975.73
2022-09-28T09:09:58.836Z,975.75
2022-09-28T09:10:59.677Z,975.73
2022-09-28T09:11:58.893Z,975.64
2022-09-28T09:12:58.864Z,975.67
2022-09-28T09:13:58.826Z,975.69
2022-09-28T09:14:58.815Z,975.72
2022-09-28T09:15:58.756Z,975.76
2022-09-28T09:17:00.475Z,975.78
2022-09-28T09:17:59.771Z,975.81
2022-09-28T09:18:58.722Z,975.85
2022-09-28T09:19:59.806Z,975.90
2022-09-28T09:20:58.888Z,975.83
2022-09-28T09:21:58.805Z,975.88
2022-09-28T09:22:58.897Z,975.97
2022-09-28T09:23:58.794Z,975.91
2022-09-28T09:24:58.801Z,975.96
2022-09-28T09:25:58.782Z,975.95
2022-09-28T09:26:58.817Z,975.94
2022-09-28T09:27:58.706Z,975.93
2022-09-28T09:28:58.766Z,975.90
2022-09-28T09:29:58.721Z,975.95
2022-09-28T09:30:58.749Z,975.90
2022-09-28T09:31:58.616Z,975.95
2022-09-28T09:32:58.589Z,975.98
2022-09-28T09:33:58.704Z,975.97
2022-09-28T09:34:58.730Z,975.93
2022-09-28T09:35:58.757Z,976.02
2022-09-28T09:36:58.664Z,976.00
2022-09-28T09:37:58.803Z,976.08
2022-09-28T09:38:58.693Z,976.04
2022-09-28T09:39:59.712Z,976.00
2022-09-28T09:40:58.688Z,976.10
2022-09-28T09:41:58.674Z,976.03
2022-09-28T09:42:58.718Z,976.02
2022-09-28T09:43:58.685Z,976.07
2022-09-28T09:44:58.629Z,976.07
2022-09-28T09:45:58.566Z,976.11
2022-09-28T09:46:58.511Z,976.01
2022-09-28T09:47:58.564Z,976.04
2022-09-28T09:48:58.528Z,976.09
2022-09-28T09:49:58.512Z,976.06
2022-09-28T09:50:58.554Z,976.04
2022-09-28T09:51:58.488Z,976.07
2022-09-28T09:52:58.541Z,976.04
2022-09-28T09:53:58.536Z,976.11
2022-09-28T09:54:58.451Z,976.16
2022-09-28T09:55:58.584Z,976.13
2022-09-28T09:56:58.550Z,976.14
2022-09-28T09:57:58.528Z,976.11
2022-09-28T09:58:58.527Z,976.28
2022-09-28T09:59:58.497Z,976.19
2022-09-28T10:00:58.568Z,976.15
2022-09-28T10:01:58.891Z,976.24
2022-09-28T10:02:58.566Z,976.17
2022-09-28T10:03:58.385Z,976.20
2022-09-28T10:04:58.374Z,976.18
2022-09-28T10:05:58.479Z,976.19
2022-09-28T10:06:58.442Z,976.21
2022-09-28T10:07:58.382Z,976.24
2022-09-28T10:08:58.363Z,976.17
2022-09-28T10:09:58.373Z,976.18
2022-09-28T10:10:58.354Z,976.16
2022-09-28T10:11:58.434Z,976.16
2022-09-28T10:12:58.463Z,976.19
2022-09-28T10:13:58.470Z,976.08
2022-09-28T10:14:58.381Z,976.15
2022-09-28T10:15:58.416Z,976.09
2022-09-28T10:16:58.425Z,976.17
2022-09-28T10:17:58.423Z,976.13
2022-09-28T10:18:58.441Z,976.10
2022-09-28T10:19:58.361Z,976.09
2022-09-28T10:20:58.382Z,976.03
2022-09-28T10:21:58.390Z,976.05
2022-09-28T10:22:58.249Z,976.06
2022-09-28T10:23:58.300Z,976.05
2022-09-28T10:24:58.253Z,976.08
2022-09-28T10:25:58.359Z,976.05
2022-09-28T10:26:58.256Z,976.07
2022-09-28T10:27:58.219Z,976.06
2022-09-28T10:28:58.247Z,976.15
2022-09-28T10:29:58.370Z,976.14
2022-09-28T10:30:58.370Z,976.11
2022-09-28T10:31:58.364Z,976.07
2022-09-28T10:32:58.350Z,976.14
2022-09-28T10:33:58.337Z,976.08
2022-09-28T10:34:58.262Z,976.14
2022-09-28T10:35:58.737Z,976.17
2022-09-28T10:36:58.347Z,976.20
2022-09-28T10:37:58.249Z,976.16
2022-09-28T10:38:58.268Z,976.13
2022-09-28T10:39:58.284Z,976.08
2022-09-28T10:40:58.202Z,976.10
2022-09-28T10:41:58.125Z,976.12
2022-09-28T10:42:58.210Z,976.16
2022-09-28T10:43:58.246Z,976.14
2022-09-28T10:44:59.257Z,976.12
2022-09-28T10:45:58.269Z,976.13
2022-09-28T10:46:58.247Z,976.10
2022-09-28T10:47:58.214Z,976.08
2022-09-28T10:48:58.169Z,976.14
2022-09-28T10:49:58.229Z,976.17
2022-09-28T10:50:58.167Z,976.18
2022-09-28T10:51:58.154Z,976.13
2022-09-28T10:52:58.174Z,976.12
2022-09-28T10:53:58.138Z,976.14
2022-09-28T10:54:58.202Z,976.11
2022-09-28T10:55:58.165Z,976.11
2022-09-28T10:56:58.025Z,976.15
2022-09-28T10:57:57.994Z,976.08
2022-09-28T10:58:58.088Z,976.15
2022-09-28T10:59:58.089Z,976.12
2022-09-28T11:00:58.161Z,976.10
2022-09-28T11:01:58.086Z,976.15
2022-09-28T11:02:58.417Z,976.17
2022-09-28T11:03:58.031Z,976.21
2022-09-28T11:04:58.048Z,976.22
2022-09-28T11:05:58.074Z,976.21
2022-09-28T11:07:58.056Z,976.16
2022-09-28T11:08:58.029Z,976.22
2022-09-28T11:09:57.929Z,976.27
2022-09-28T11:10:57.960Z,976.21
2022-09-28T11:11:58.062Z,976.25
2022-09-28T11:12:57.892Z,976.23
2022-09-28T11:13:57.930Z,976.27
2022-09-28T11:14:57.878Z,976.25
2022-09-28T11:15:57.875Z,976.32
2022-09-28T11:16:57.948Z,976.31
2022-09-28T11:17:57.889Z,976.32
2022-09-28T11:18:57.990Z,976.22
2022-09-28T11:19:57.948Z,976.30
2022-09-28T11:20:57.941Z,976.22
2022-09-28T11:21:57.911Z,976.29
2022-09-28T11:22:57.961Z,976.31
2022-09-28T11:23:57.906Z,976.27
2022-09-28T11:24:57.911Z,976.34
2022-09-28T11:25:57.897Z,976.26
2022-09-28T11:26:57.878Z,976.25
2022-09-28T11:27:57.910Z,976.25
2022-09-28T11:28:57.810Z,976.25
2022-09-28T11:29:57.788Z,976.24
2022-09-28T11:30:57.830Z,976.29
2022-09-28T11:31:57.751Z,976.25
2022-09-28T11:32:57.748Z,976.27
2022-09-28T11:33:57.856Z,976.30
2022-09-28T11:35:00.084Z,976.30
2022-09-28T11:35:58.937Z,976.27
2022-09-28T11:37:01.588Z,976.24
2022-09-28T11:37:58.935Z,976.26
2022-09-28T11:38:57.766Z,976.27
2022-09-28T11:39:57.854Z,976.25
2022-09-28T11:40:57.827Z,976.25
2022-09-28T11:41:57.877Z,976.18
2022-09-28T11:42:57.833Z,976.23
2022-09-28T11:43:57.779Z,976.19
2022-09-28T11:44:57.813Z,976.24
2022-09-28T11:45:57.792Z,976.28
2022-09-28T11:46:57.730Z,976.21
2022-09-28T11:47:57.747Z,976.19
2022-09-28T11:48:57.647Z,976.18
2022-09-28T11:49:57.648Z,976.14
2022-09-28T11:50:57.763Z,976.22
2022-09-28T11:51:57.730Z,976.26
2022-09-28T11:52:57.728Z,976.27
2022-09-28T11:53:57.714Z,976.29
2022-09-28T11:54:57.624Z,976.18
2022-09-28T11:55:57.794Z,976.21
2022-09-28T11:56:57.695Z,976.25
2022-09-28T11:57:57.732Z,976.27
2022-09-28T11:58:57.754Z,976.21
2022-09-28T11:59:57.748Z,976.32
2022-09-28T12:00:57.643Z,976.25
2022-09-28T12:01:57.830Z,976.30
2022-09-28T12:02:58.407Z,976.28
2022-09-28T12:03:57.564Z,976.35
2022-09-28T12:04:57.564Z,976.36
2022-09-28T12:05:57.598Z,976.33
2022-09-28T12:06:57.600Z,976.35
2022-09-28T12:07:57.582Z,976.34
2022-09-28T12:08:57.579Z,976.37
2022-09-28T12:09:57.619Z,976.40
2022-09-28T12:10:57.586Z,976.42
2022-09-28T12:11:57.583Z,976.36
2022-09-28T12:12:57.662Z,976.34
2022-09-28T12:13:57.563Z,976.39
2022-09-28T12:14:57.614Z,976.40
2022-09-28T13:33:57.133Z,976.46
2022-09-28T13:34:58.113Z,976.42
2022-09-28T13:35:58.096Z,976.44
2022-09-28T13:36:58.197Z,976.45
2022-09-28T13:37:58.084Z,976.45
2022-09-28T13:38:58.104Z,976.51
2022-09-28T13:39:58.042Z,976.49
2022-09-28T13:40:58.073Z,976.48
2022-09-28T13:41:58.059Z,976.47
2022-09-28T13:42:58.170Z,976.54
2022-09-28T13:43:58.131Z,976.54
2022-09-28T13:44:58.084Z,976.50
2022-09-28T13:45:59.122Z,976.49
2022-09-28T13:46:58.051Z,976.54